sensor_id;sensor_type;location;lat;lon;timestamp;P1;durP1;ratioP1;P2;durP2;ratioP2
3629;SDS011;1831;53.626;10.012;2022-08-19T00:01:51;24.47;;;20.80;;
3629;SDS011;1831;53.626;10.012;2022-08-19T00:04:21;25.17;;;21.17;;
3629;SDS011;1831;53.626;10.012;2022-08-19T00:06:50;24.20;;;19.70;;
3629;SDS011;1831;53.626;10.012;2022-08-19T00:09:19;25.03;;;20.13;;
3629;SDS011;1831;53.626;10.012;2022-08-19T00:11:47;25.53;;;21.00;;
3629;SDS011;1831;53.626;10.012;2022-08-19T00:14:15;23.47;;;21.00;;
3629;SDS011;1831;53.626;10.012;2022-08-19T00:16:45;30.03;;;21.60;;
3629;SDS011;1831;53.626;10.012;2022-08-19T00:19:13;22.70;;;20.30;;
3629;SDS011;1831;53.626;10.012;2022-08-19T00:21:41;23.90;;;20.30;;
3629;SDS011;1831;53.626;10.012;2022-08-19T00:24:09;23.50;;;19.33;;
3629;SDS011;1831;53.626;10.012;2022-08-19T00:26:38;25.73;;;20.90;;
3629;SDS011;1831;53.626;10.012;2022-08-19T00:29:06;26.70;;;21.73;;
3629;SDS011;1831;53.626;10.012;2022-08-19T00:31:34;23.33;;;20.40;;
3629;SDS011;1831;53.626;10.012;2022-08-19T00:34:01;26.70;;;21.87;;
3629;SDS011;1831;53.626;10.012;2022-08-19T00:36:29;29.63;;;22.47;;
3629;SDS011;1831;53.626;10.012;2022-08-19T00:38:57;26.93;;;21.90;;
3629;SDS011;1831;53.626;10.012;2022-08-19T00:41:24;32.30;;;21.93;;
3629;SDS011;1831;53.626;10.012;2022-08-19T00:44:01;26.80;;;23.00;;
3629;SDS011;1831;53.626;10.012;2022-08-19T00:46:29;24.80;;;20.20;;
3629;SDS011;1831;53.626;10.012;2022-08-19T00:48:57;30.87;;;22.30;;
3629;SDS011;1831;53.626;10.012;2022-08-19T00:51:26;26.63;;;23.27;;
3629;SDS011;1831;53.626;10.012;2022-08-19T00:53:57;30.40;;;22.47;;
3629;SDS011;1831;53.626;10.012;2022-08-19T00:56:26;25.97;;;21.80;;
3629;SDS011;1831;53.626;10.012;2022-08-19T00:58:53;25.93;;;22.47;;
3629;SDS011;1831;53.626;10.012;2022-08-19T01:01:23;27.30;;;19.60;;
3629;SDS011;1831;53.626;10.012;2022-08-19T01:03:50;31.57;;;23.87;;
3629;SDS011;1831;53.626;10.012;2022-08-19T01:06:17;29.30;;;22.00;;
3629;SDS011;1831;53.626;10.012;2022-08-19T01:08:44;29.97;;;20.73;;
3629;SDS011;1831;53.626;10.012;2022-08-19T01:11:11;24.93;;;21.80;;
3629;SDS011;1831;53.626;10.012;2022-08-19T01:13:38;28.20;;;22.37;;
3629;SDS011;1831;53.626;10.012;2022-08-19T01:16:07;28.93;;;21.10;;
3629;SDS011;1831;53.626;10.012;2022-08-19T01:18:40;28.27;;;21.20;;
3629;SDS011;1831;53.626;10.012;2022-08-19T01:21:10;29.77;;;21.30;;
3629;SDS011;1831;53.626;10.012;2022-08-19T01:23:42;25.63;;;22.00;;
3629;SDS011;1831;53.626;10.012;2022-08-19T01:26:10;32.87;;;22.73;;
3629;SDS011;1831;53.626;10.012;2022-08-19T01:28:39;29.43;;;21.93;;
3629;SDS011;1831;53.626;10.012;2022-08-19T01:31:07;25.70;;;21.40;;
3629;SDS011;1831;53.626;10.012;2022-08-19T01:33:36;29.43;;;22.90;;
3629;SDS011;1831;53.626;10.012;2022-08-19T01:36:05;26.50;;;20.97;;
3629;SDS011;1831;53.626;10.012;2022-08-19T01:38:35;28.30;;;23.37;;
3629;SDS011;1831;53.626;10.012;2022-08-19T01:41:04;24.87;;;21.90;;
3629;SDS011;1831;53.626;10.012;2022-08-19T01:43:32;32.47;;;24.70;;
3629;SDS011;1831;53.626;10.012;2022-08-19T01:45:59;31.03;;;21.90;;
3629;SDS011;1831;53.626;10.012;2022-08-19T01:48:32;31.23;;;22.30;;
3629;SDS011;1831;53.626;10.012;2022-08-19T01:50:59;31.33;;;24.27;;
3629;SDS011;1831;53.626;10.012;2022-08-19T01:53:26;34.13;;;24.77;;
3629;SDS011;1831;53.626;10.012;2022-08-19T01:55:53;28.50;;;23.50;;
3629;SDS011;1831;53.626;10.012;2022-08-19T01:58:22;32.50;;;25.90;;
3629;SDS011;1831;53.626;10.012;2022-08-19T02:00:54;36.27;;;27.30;;
3629;SDS011;1831;53.626;10.012;2022-08-19T02:03:21;31.87;;;24.53;;
3629;SDS011;1831;53.626;10.012;2022-08-19T02:05:53;39.23;;;24.90;;
3629;SDS011;1831;53.626;10.012;2022-08-19T02:08:22;38.03;;;25.70;;
3629;SDS011;1831;53.626;10.012;2022-08-19T02:10:49;32.90;;;26.13;;
3629;SDS011;1831;53.626;10.012;2022-08-19T02:13:16;33.20;;;23.20;;
3629;SDS011;1831;53.626;10.012;2022-08-19T02:15:44;34.33;;;25.73;;
3629;SDS011;1831;53.626;10.012;2022-08-19T02:18:11;33.33;;;23.30;;
3629;SDS011;1831;53.626;10.012;2022-08-19T02:20:39;31.77;;;23.83;;
3629;SDS011;1831;53.626;10.012;2022-08-19T02:23:07;30.20;;;22.63;;
3629;SDS011;1831;53.626;10.012;2022-08-19T02:25:34;30.17;;;23.33;;
3629;SDS011;1831;53.626;10.012;2022-08-19T02:28:01;33.97;;;24.67;;
3629;SDS011;1831;53.626;10.012;2022-08-19T02:30:28;28.23;;;22.27;;
3629;SDS011;1831;53.626;10.012;2022-08-19T02:32:57;29.90;;;23.20;;
3629;SDS011;1831;53.626;10.012;2022-08-19T02:35:24;36.47;;;24.77;;
3629;SDS011;1831;53.626;10.012;2022-08-19T02:37:52;38.23;;;24.70;;
3629;SDS011;1831;53.626;10.012;2022-08-19T02:40:36;38.83;;;27.40;;
3629;SDS011;1831;53.626;10.012;2022-08-19T02:43:04;37.10;;;24.30;;
3629;SDS011;1831;53.626;10.012;2022-08-19T02:45:33;42.17;;;28.03;;
3629;SDS011;1831;53.626;10.012;2022-08-19T02:48:04;47.33;;;27.37;;
3629;SDS011;1831;53.626;10.012;2022-08-19T02:50:31;41.57;;;26.00;;
3629;SDS011;1831;53.626;10.012;2022-08-19T02:52:58;38.27;;;24.73;;
3629;SDS011;1831;53.626;10.012;2022-08-19T02:55:25;41.53;;;28.43;;
3629;SDS011;1831;53.626;10.012;2022-08-19T02:57:52;35.87;;;27.20;;
3629;SDS011;1831;53.626;10.012;2022-08-19T03:00:19;45.13;;;25.73;;
3629;SDS011;1831;53.626;10.012;2022-08-19T03:02:46;37.30;;;26.27;;
3629;SDS011;1831;53.626;10.012;2022-08-19T03:05:15;36.47;;;25.97;;
3629;SDS011;1831;53.626;10.012;2022-08-19T03:07:42;35.20;;;25.80;;
3629;SDS011;1831;53.626;10.012;2022-08-19T03:10:09;36.00;;;25.50;;
3629;SDS011;1831;53.626;10.012;2022-08-19T03:12:36;40.80;;;26.07;;
3629;SDS011;1831;53.626;10.012;2022-08-19T03:15:04;34.47;;;21.67;;
3629;SDS011;1831;53.626;10.012;2022-08-19T03:17:33;42.17;;;25.17;;
3629;SDS011;1831;53.626;10.012;2022-08-19T03:20:00;36.23;;;24.77;;
3629;SDS011;1831;53.626;10.012;2022-08-19T03:22:29;32.80;;;24.57;;
3629;SDS011;1831;53.626;10.012;2022-08-19T03:24:56;37.90;;;24.80;;
3629;SDS011;1831;53.626;10.012;2022-08-19T03:27:24;40.93;;;25.23;;
3629;SDS011;1831;53.626;10.012;2022-08-19T03:29:51;36.03;;;25.60;;
3629;SDS011;1831;53.626;10.012;2022-08-19T03:32:18;37.43;;;24.37;;
3629;SDS011;1831;53.626;10.012;2022-08-19T03:34:45;36.43;;;23.90;;
3629;SDS011;1831;53.626;10.012;2022-08-19T03:37:11;40.83;;;26.60;;
3629;SDS011;1831;53.626;10.012;2022-08-19T03:39:40;35.23;;;24.87;;
3629;SDS011;1831;53.626;10.012;2022-08-19T03:42:08;34.00;;;23.80;;
3629;SDS011;1831;53.626;10.012;2022-08-19T03:44:35;32.73;;;24.40;;
3629;SDS011;1831;53.626;10.012;2022-08-19T03:47:03;30.97;;;23.17;;
3629;SDS011;1831;53.626;10.012;2022-08-19T03:49:32;36.97;;;24.77;;
3629;SDS011;1831;53.626;10.012;2022-08-19T03:52:00;34.07;;;21.83;;
3629;SDS011;1831;53.626;10.012;2022-08-19T03:54:27;28.50;;;21.10;;
3629;SDS011;1831;53.626;10.012;2022-08-19T03:56:56;39.33;;;24.90;;
3629;SDS011;1831;53.626;10.012;2022-08-19T03:59:25;38.00;;;24.13;;
3629;SDS011;1831;53.626;10.012;2022-08-19T04:01:54;32.30;;;23.13;;
3629;SDS011;1831;53.626;10.012;2022-08-19T04:04:22;34.17;;;23.40;;
3629;SDS011;1831;53.626;10.012;2022-08-19T04:06:49;41.03;;;23.37;;
3629;SDS011;1831;53.626;10.012;2022-08-19T04:09:17;27.03;;;21.73;;
3629;SDS011;1831;53.626;10.012;2022-08-19T04:11:47;33.57;;;22.80;;
3629;SDS011;1831;53.626;10.012;2022-08-19T04:14:18;33.13;;;23.20;;
3629;SDS011;1831;53.626;10.012;2022-08-19T04:16:47;32.27;;;23.03;;
3629;SDS011;1831;53.626;10.012;2022-08-19T04:19:15;30.57;;;22.90;;
3629;SDS011;1831;53.626;10.012;2022-08-19T04:21:44;43.13;;;24.77;;
3629;SDS011;1831;53.626;10.012;2022-08-19T04:24:12;37.60;;;24.90;;
3629;SDS011;1831;53.626;10.012;2022-08-19T04:26:40;39.33;;;25.27;;
3629;SDS011;1831;53.626;10.012;2022-08-19T04:29:12;33.50;;;24.33;;
3629;SDS011;1831;53.626;10.012;2022-08-19T04:31:42;35.10;;;26.97;;
3629;SDS011;1831;53.626;10.012;2022-08-19T04:34:11;36.10;;;26.33;;
3629;SDS011;1831;53.626;10.012;2022-08-19T04:36:40;36.57;;;26.73;;
3629;SDS011;1831;53.626;10.012;2022-08-19T04:39:10;40.40;;;28.60;;
3629;SDS011;1831;53.626;10.012;2022-08-19T04:41:39;46.77;;;30.00;;
3629;SDS011;1831;53.626;10.012;2022-08-19T04:44:20;45.23;;;29.80;;
3629;SDS011;1831;53.626;10.012;2022-08-19T04:46:49;41.93;;;28.60;;
3629;SDS011;1831;53.626;10.012;2022-08-19T04:49:16;49.10;;;29.40;;
3629;SDS011;1831;53.626;10.012;2022-08-19T04:51:45;45.80;;;31.80;;
3629;SDS011;1831;53.626;10.012;2022-08-19T04:54:13;44.07;;;30.53;;
3629;SDS011;1831;53.626;10.012;2022-08-19T04:56:41;43.00;;;31.27;;
3629;SDS011;1831;53.626;10.012;2022-08-19T04:59:08;44.70;;;30.30;;
3629;SDS011;1831;53.626;10.012;2022-08-19T05:01:36;41.83;;;27.83;;
3629;SDS011;1831;53.626;10.012;2022-08-19T05:04:05;39.73;;;27.53;;
3629;SDS011;1831;53.626;10.012;2022-08-19T05:06:33;46.87;;;29.80;;
3629;SDS011;1831;53.626;10.012;2022-08-19T05:09:01;45.57;;;29.73;;
3629;SDS011;1831;53.626;10.012;2022-08-19T05:11:31;40.20;;;27.20;;
3629;SDS011;1831;53.626;10.012;2022-08-19T05:13:59;48.80;;;30.93;;
3629;SDS011;1831;53.626;10.012;2022-08-19T05:16:27;44.90;;;29.27;;
3629;SDS011;1831;53.626;10.012;2022-08-19T05:18:54;41.23;;;30.20;;
3629;SDS011;1831;53.626;10.012;2022-08-19T05:21:40;45.10;;;31.70;;
3629;SDS011;1831;53.626;10.012;2022-08-19T05:24:26;44.67;;;29.37;;
3629;SDS011;1831;53.626;10.012;2022-08-19T05:26:54;44.70;;;30.57;;
3629;SDS011;1831;53.626;10.012;2022-08-19T05:29:23;45.83;;;30.40;;
3629;SDS011;1831;53.626;10.012;2022-08-19T05:31:53;47.13;;;33.50;;
3629;SDS011;1831;53.626;10.012;2022-08-19T05:34:21;45.07;;;31.90;;
3629;SDS011;1831;53.626;10.012;2022-08-19T05:36:55;41.00;;;31.03;;
3629;SDS011;1831;53.626;10.012;2022-08-19T05:39:24;39.63;;;30.03;;
3629;SDS011;1831;53.626;10.012;2022-08-19T05:41:53;40.20;;;30.20;;
3629;SDS011;1831;53.626;10.012;2022-08-19T05:44:23;46.27;;;30.63;;
3629;SDS011;1831;53.626;10.012;2022-08-19T05:46:50;39.17;;;28.57;;
3629;SDS011;1831;53.626;10.012;2022-08-19T05:49:20;39.87;;;29.13;;
3629;SDS011;1831;53.626;10.012;2022-08-19T05:51:48;38.47;;;28.83;;
3629;SDS011;1831;53.626;10.012;2022-08-19T05:54:17;44.90;;;30.43;;
3629;SDS011;1831;53.626;10.012;2022-08-19T05:56:44;42.10;;;28.40;;
3629;SDS011;1831;53.626;10.012;2022-08-19T05:59:12;46.23;;;30.53;;
3629;SDS011;1831;53.626;10.012;2022-08-19T06:01:41;40.03;;;28.67;;
3629;SDS011;1831;53.626;10.012;2022-08-19T06:04:10;40.87;;;30.37;;
3629;SDS011;1831;53.626;10.012;2022-08-19T06:06:38;41.57;;;29.37;;
3629;SDS011;1831;53.626;10.012;2022-08-19T06:09:05;45.83;;;31.67;;
3629;SDS011;1831;53.626;10.012;2022-08-19T06:11:37;39.23;;;29.73;;
3629;SDS011;1831;53.626;10.012;2022-08-19T06:14:06;42.00;;;30.00;;
3629;SDS011;1831;53.626;10.012;2022-08-19T06:16:35;45.03;;;32.23;;
3629;SDS011;1831;53.626;10.012;2022-08-19T06:19:06;46.33;;;29.90;;
3629;SDS011;1831;53.626;10.012;2022-08-19T06:21:34;46.40;;;31.90;;
3629;SDS011;1831;53.626;10.012;2022-08-19T06:24:03;48.70;;;33.50;;
3629;SDS011;1831;53.626;10.012;2022-08-19T06:26:31;41.90;;;30.50;;
3629;SDS011;1831;53.626;10.012;2022-08-19T06:29:02;44.70;;;29.53;;
3629;SDS011;1831;53.626;10.012;2022-08-19T06:31:30;43.37;;;32.57;;
3629;SDS011;1831;53.626;10.012;2022-08-19T06:33:59;50.53;;;33.93;;
3629;SDS011;1831;53.626;10.012;2022-08-19T06:36:28;47.67;;;33.00;;
3629;SDS011;1831;53.626;10.012;2022-08-19T06:38:58;55.73;;;34.53;;
3629;SDS011;1831;53.626;10.012;2022-08-19T06:41:25;50.47;;;34.40;;
3629;SDS011;1831;53.626;10.012;2022-08-19T06:43:53;50.00;;;33.90;;
3629;SDS011;1831;53.626;10.012;2022-08-19T06:46:22;49.00;;;34.20;;
3629;SDS011;1831;53.626;10.012;2022-08-19T06:48:49;53.30;;;34.90;;
3629;SDS011;1831;53.626;10.012;2022-08-19T06:51:18;52.63;;;37.20;;
3629;SDS011;1831;53.626;10.012;2022-08-19T06:53:46;50.57;;;34.20;;
3629;SDS011;1831;53.626;10.012;2022-08-19T06:56:14;48.67;;;34.60;;
3629;SDS011;1831;53.626;10.012;2022-08-19T06:58:42;55.27;;;36.13;;
3629;SDS011;1831;53.626;10.012;2022-08-19T07:01:09;51.80;;;33.20;;
3629;SDS011;1831;53.626;10.012;2022-08-19T07:03:37;53.73;;;36.10;;
3629;SDS011;1831;53.626;10.012;2022-08-19T07:06:05;52.00;;;33.87;;
3629;SDS011;1831;53.626;10.012;2022-08-19T07:08:34;52.23;;;34.13;;
3629;SDS011;1831;53.626;10.012;2022-08-19T07:11:02;49.67;;;34.37;;
3629;SDS011;1831;53.626;10.012;2022-08-19T07:13:32;53.80;;;35.07;;
3629;SDS011;1831;53.626;10.012;2022-08-19T07:16:02;52.63;;;34.67;;
3629;SDS011;1831;53.626;10.012;2022-08-19T07:18:30;52.93;;;33.40;;
3629;SDS011;1831;53.626;10.012;2022-08-19T07:21:03;46.73;;;31.80;;
3629;SDS011;1831;53.626;10.012;2022-08-19T07:23:31;56.03;;;33.10;;
3629;SDS011;1831;53.626;10.012;2022-08-19T07:25:58;52.33;;;34.43;;
3629;SDS011;1831;53.626;10.012;2022-08-19T07:28:31;51.50;;;34.37;;
3629;SDS011;1831;53.626;10.012;2022-08-19T07:30:57;55.30;;;34.47;;
3629;SDS011;1831;53.626;10.012;2022-08-19T07:33:26;46.43;;;31.97;;
3629;SDS011;1831;53.626;10.012;2022-08-19T07:35:55;40.83;;;28.57;;
3629;SDS011;1831;53.626;10.012;2022-08-19T07:38:23;40.03;;;31.63;;
3629;SDS011;1831;53.626;10.012;2022-08-19T07:40:50;52.00;;;30.63;;
3629;SDS011;1831;53.626;10.012;2022-08-19T07:43:18;41.20;;;30.90;;
3629;SDS011;1831;53.626;10.012;2022-08-19T07:45:50;40.93;;;28.97;;
3629;SDS011;1831;53.626;10.012;2022-08-19T07:48:17;45.47;;;31.17;;
3629;SDS011;1831;53.626;10.012;2022-08-19T07:50:47;33.80;;;27.03;;
3629;SDS011;1831;53.626;10.012;2022-08-19T07:53:14;41.77;;;31.27;;
3629;SDS011;1831;53.626;10.012;2022-08-19T07:55:42;41.13;;;28.87;;
3629;SDS011;1831;53.626;10.012;2022-08-19T07:58:11;39.00;;;28.53;;
3629;SDS011;1831;53.626;10.012;2022-08-19T08:00:39;43.87;;;27.57;;
3629;SDS011;1831;53.626;10.012;2022-08-19T08:03:06;42.63;;;26.93;;
3629;SDS011;1831;53.626;10.012;2022-08-19T08:05:33;33.90;;;26.50;;
3629;SDS011;1831;53.626;10.012;2022-08-19T08:08:18;37.20;;;28.17;;
3629;SDS011;1831;53.626;10.012;2022-08-19T08:11:04;34.67;;;26.03;;
3629;SDS011;1831;53.626;10.012;2022-08-19T08:13:32;33.83;;;25.73;;
3629;SDS011;1831;53.626;10.012;2022-08-19T08:16:00;34.97;;;26.50;;
3629;SDS011;1831;53.626;10.012;2022-08-19T08:18:27;30.03;;;25.20;;
3629;SDS011;1831;53.626;10.012;2022-08-19T08:20:55;31.47;;;25.63;;
3629;SDS011;1831;53.626;10.012;2022-08-19T08:23:23;34.00;;;24.63;;
3629;SDS011;1831;53.626;10.012;2022-08-19T08:25:51;29.53;;;24.17;;
3629;SDS011;1831;53.626;10.012;2022-08-19T08:28:21;33.53;;;22.47;;
3629;SDS011;1831;53.626;10.012;2022-08-19T08:30:48;32.40;;;23.97;;
3629;SDS011;1831;53.626;10.012;2022-08-19T08:33:17;31.67;;;23.17;;
3629;SDS011;1831;53.626;10.012;2022-08-19T08:35:45;28.83;;;22.80;;
3629;SDS011;1831;53.626;10.012;2022-08-19T08:38:12;30.70;;;23.00;;
3629;SDS011;1831;53.626;10.012;2022-08-19T08:40:43;30.10;;;22.57;;
3629;SDS011;1831;53.626;10.012;2022-08-19T08:43:21;32.20;;;23.10;;
3629;SDS011;1831;53.626;10.012;2022-08-19T08:45:55;28.33;;;20.80;;
3629;SDS011;1831;53.626;10.012;2022-08-19T08:48:31;27.10;;;20.97;;
3629;SDS011;1831;53.626;10.012;2022-08-19T08:51:04;29.77;;;21.70;;
3629;SDS011;1831;53.626;10.012;2022-08-19T08:53:40;29.70;;;21.93;;
3629;SDS011;1831;53.626;10.012;2022-08-19T08:56:08;26.93;;;20.33;;
3629;SDS011;1831;53.626;10.012;2022-08-19T08:58:41;28.83;;;20.97;;
3629;SDS011;1831;53.626;10.012;2022-08-19T09:01:14;26.70;;;21.47;;
3629;SDS011;1831;53.626;10.012;2022-08-19T09:03:41;30.47;;;21.00;;
3629;SDS011;1831;53.626;10.012;2022-08-19T09:06:12;28.97;;;20.27;;
3629;SDS011;1831;53.626;10.012;2022-08-19T09:08:50;26.50;;;20.63;;
3629;SDS011;1831;53.626;10.012;2022-08-19T09:11:25;26.93;;;21.50;;
3629;SDS011;1831;53.626;10.012;2022-08-19T09:14:09;28.30;;;21.23;;
3629;SDS011;1831;53.626;10.012;2022-08-19T09:16:42;35.63;;;21.47;;
3629;SDS011;1831;53.626;10.012;2022-08-19T09:19:09;30.83;;;21.90;;
3629;SDS011;1831;53.626;10.012;2022-08-19T09:21:36;28.00;;;22.30;;
3629;SDS011;1831;53.626;10.012;2022-08-19T09:24:04;34.57;;;23.23;;
3629;SDS011;1831;53.626;10.012;2022-08-19T09:26:32;30.13;;;22.30;;
3629;SDS011;1831;53.626;10.012;2022-08-19T09:29:00;29.77;;;20.27;;
3629;SDS011;1831;53.626;10.012;2022-08-19T09:31:31;29.60;;;21.90;;
3629;SDS011;1831;53.626;10.012;2022-08-19T09:33:58;24.37;;;20.23;;
3629;SDS011;1831;53.626;10.012;2022-08-19T09:36:29;29.60;;;20.50;;
3629;SDS011;1831;53.626;10.012;2022-08-19T09:39:01;25.90;;;20.93;;
3629;SDS011;1831;53.626;10.012;2022-08-19T09:41:28;28.17;;;19.53;;
3629;SDS011;1831;53.626;10.012;2022-08-19T09:43:56;26.90;;;18.37;;
3629;SDS011;1831;53.626;10.012;2022-08-19T09:46:26;26.30;;;19.13;;
3629;SDS011;1831;53.626;10.012;2022-08-19T09:49:03;23.43;;;19.00;;
3629;SDS011;1831;53.626;10.012;2022-08-19T09:51:31;22.03;;;18.10;;
3629;SDS011;1831;53.626;10.012;2022-08-19T09:53:59;28.87;;;20.13;;
3629;SDS011;1831;53.626;10.012;2022-08-19T09:56:28;18.30;;;15.60;;
3629;SDS011;1831;53.626;10.012;2022-08-19T09:58:56;23.37;;;19.27;;
3629;SDS011;1831;53.626;10.012;2022-08-19T10:01:25;22.93;;;18.70;;
3629;SDS011;1831;53.626;10.012;2022-08-19T10:03:57;22.33;;;16.50;;
3629;SDS011;1831;53.626;10.012;2022-08-19T10:06:26;25.10;;;17.17;;
3629;SDS011;1831;53.626;10.012;2022-08-19T10:08:57;20.47;;;17.17;;
3629;SDS011;1831;53.626;10.012;2022-08-19T10:11:25;25.13;;;17.80;;
3629;SDS011;1831;53.626;10.012;2022-08-19T10:13:52;26.43;;;18.80;;
3629;SDS011;1831;53.626;10.012;2022-08-19T10:16:20;28.00;;;17.80;;
3629;SDS011;1831;53.626;10.012;2022-08-19T10:18:48;24.27;;;18.33;;
3629;SDS011;1831;53.626;10.012;2022-08-19T10:21:17;29.60;;;17.60;;
3629;SDS011;1831;53.626;10.012;2022-08-19T10:23:46;30.43;;;17.43;;
3629;SDS011;1831;53.626;10.012;2022-08-19T10:26:15;25.10;;;19.67;;
3629;SDS011;1831;53.626;10.012;2022-08-19T10:28:44;27.00;;;20.73;;
3629;SDS011;1831;53.626;10.012;2022-08-19T10:31:11;25.77;;;21.60;;
3629;SDS011;1831;53.626;10.012;2022-08-19T10:33:40;27.93;;;21.20;;
3629;SDS011;1831;53.626;10.012;2022-08-19T10:36:08;24.37;;;19.30;;
3629;SDS011;1831;53.626;10.012;2022-08-19T10:38:38;30.50;;;19.47;;
3629;SDS011;1831;53.626;10.012;2022-08-19T10:41:09;26.67;;;20.73;;
3629;SDS011;1831;53.626;10.012;2022-08-19T10:43:37;24.07;;;18.77;;
3629;SDS011;1831;53.626;10.012;2022-08-19T10:46:05;28.97;;;21.63;;
3629;SDS011;1831;53.626;10.012;2022-08-19T10:48:32;29.23;;;21.07;;
3629;SDS011;1831;53.626;10.012;2022-08-19T10:50:59;29.03;;;21.93;;
3629;SDS011;1831;53.626;10.012;2022-08-19T10:53:45;30.00;;;22.23;;
3629;SDS011;1831;53.626;10.012;2022-08-19T10:56:12;31.67;;;24.37;;
3629;SDS011;1831;53.626;10.012;2022-08-19T10:58:57;30.17;;;23.03;;
3629;SDS011;1831;53.626;10.012;2022-08-19T11:01:24;29.70;;;23.03;;
3629;SDS011;1831;53.626;10.012;2022-08-19T11:03:52;32.50;;;22.67;;
3629;SDS011;1831;53.626;10.012;2022-08-19T11:06:20;27.70;;;21.83;;
3629;SDS011;1831;53.626;10.012;2022-08-19T11:08:48;23.97;;;21.37;;
3629;SDS011;1831;53.626;10.012;2022-08-19T11:11:15;37.00;;;24.93;;
3629;SDS011;1831;53.626;10.012;2022-08-19T11:13:42;29.00;;;22.10;;
3629;SDS011;1831;53.626;10.012;2022-08-19T11:16:13;31.30;;;22.77;;
3629;SDS011;1831;53.626;10.012;2022-08-19T11:18:43;30.03;;;22.60;;
3629;SDS011;1831;53.626;10.012;2022-08-19T11:21:12;27.70;;;21.40;;
3629;SDS011;1831;53.626;10.012;2022-08-19T11:23:42;23.33;;;19.30;;
3629;SDS011;1831;53.626;10.012;2022-08-19T11:26:11;27.97;;;21.30;;
3629;SDS011;1831;53.626;10.012;2022-08-19T11:28:38;26.30;;;20.73;;
3629;SDS011;1831;53.626;10.012;2022-08-19T11:31:08;28.53;;;20.27;;
3629;SDS011;1831;53.626;10.012;2022-08-19T11:33:36;24.80;;;20.17;;
3629;SDS011;1831;53.626;10.012;2022-08-19T11:36:03;21.23;;;18.67;;
3629;SDS011;1831;53.626;10.012;2022-08-19T11:38:31;23.00;;;18.67;;
3629;SDS011;1831;53.626;10.012;2022-08-19T11:40:58;23.67;;;20.10;;
3629;SDS011;1831;53.626;10.012;2022-08-19T11:43:27;22.90;;;20.50;;
3629;SDS011;1831;53.626;10.012;2022-08-19T11:45:55;23.97;;;18.63;;
3629;SDS011;1831;53.626;10.012;2022-08-19T11:48:23;24.80;;;19.00;;
3629;SDS011;1831;53.626;10.012;2022-08-19T11:50:51;22.13;;;19.73;;
3629;SDS011;1831;53.626;10.012;2022-08-19T11:53:20;23.90;;;20.30;;
3629;SDS011;1831;53.626;10.012;2022-08-19T11:55:47;22.70;;;18.10;;
3629;SDS011;1831;53.626;10.012;2022-08-19T11:58:16;19.20;;;16.57;;
3629;SDS011;1831;53.626;10.012;2022-08-19T12:00:44;23.73;;;17.10;;
3629;SDS011;1831;53.626;10.012;2022-08-19T12:03:12;20.43;;;16.50;;
3629;SDS011;1831;53.626;10.012;2022-08-19T12:05:40;22.27;;;18.27;;
3629;SDS011;1831;53.626;10.012;2022-08-19T12:08:07;23.07;;;18.20;;
3629;SDS011;1831;53.626;10.012;2022-08-19T12:10:34;21.07;;;17.13;;
3629;SDS011;1831;53.626;10.012;2022-08-19T12:13:01;23.17;;;19.20;;
3629;SDS011;1831;53.626;10.012;2022-08-19T12:15:28;19.60;;;16.93;;
3629;SDS011;1831;53.626;10.012;2022-08-19T12:17:57;19.33;;;17.20;;
3629;SDS011;1831;53.626;10.012;2022-08-19T12:20:23;22.10;;;17.27;;
3629;SDS011;1831;53.626;10.012;2022-08-19T12:22:51;19.10;;;17.10;;
3629;SDS011;1831;53.626;10.012;2022-08-19T12:25:18;22.00;;;17.47;;
3629;SDS011;1831;53.626;10.012;2022-08-19T12:27:46;20.00;;;15.93;;
3629;SDS011;1831;53.626;10.012;2022-08-19T12:30:13;21.87;;;18.00;;
3629;SDS011;1831;53.626;10.012;2022-08-19T12:32:40;18.50;;;16.60;;
3629;SDS011;1831;53.626;10.012;2022-08-19T12:35:09;18.23;;;16.17;;
3629;SDS011;1831;53.626;10.012;2022-08-19T12:37:36;18.80;;;14.83;;
3629;SDS011;1831;53.626;10.012;2022-08-19T12:40:04;19.50;;;17.40;;
3629;SDS011;1831;53.626;10.012;2022-08-19T12:42:32;20.17;;;16.63;;
3629;SDS011;1831;53.626;10.012;2022-08-19T12:44:59;18.93;;;16.80;;
3629;SDS011;1831;53.626;10.012;2022-08-19T12:47:26;18.67;;;16.77;;
3629;SDS011;1831;53.626;10.012;2022-08-19T12:49:53;13.17;;;11.87;;
3629;SDS011;1831;53.626;10.012;2022-08-19T12:52:22;16.50;;;13.90;;
3629;SDS011;1831;53.626;10.012;2022-08-19T12:54:52;18.00;;;16.10;;
3629;SDS011;1831;53.626;10.012;2022-08-19T12:57:21;16.80;;;14.73;;
3629;SDS011;1831;53.626;10.012;2022-08-19T12:59:51;17.87;;;14.60;;
3629;SDS011;1831;53.626;10.012;2022-08-19T13:02:19;16.50;;;14.40;;
3629;SDS011;1831;53.626;10.012;2022-08-19T13:04:47;16.20;;;14.50;;
3629;SDS011;1831;53.626;10.012;2022-08-19T13:07:14;17.83;;;13.70;;
3629;SDS011;1831;53.626;10.012;2022-08-19T13:09:42;16.30;;;14.57;;
3629;SDS011;1831;53.626;10.012;2022-08-19T13:12:09;19.07;;;17.03;;
3629;SDS011;1831;53.626;10.012;2022-08-19T13:14:38;18.07;;;15.93;;
3629;SDS011;1831;53.626;10.012;2022-08-19T13:17:05;17.27;;;14.60;;
3629;SDS011;1831;53.626;10.012;2022-08-19T13:19:33;17.20;;;15.10;;
3629;SDS011;1831;53.626;10.012;2022-08-19T13:22:02;17.63;;;15.80;;
3629;SDS011;1831;53.626;10.012;2022-08-19T13:24:29;17.40;;;14.87;;
3629;SDS011;1831;53.626;10.012;2022-08-19T13:26:59;19.23;;;17.23;;
3629;SDS011;1831;53.626;10.012;2022-08-19T13:29:26;18.27;;;14.57;;
3629;SDS011;1831;53.626;10.012;2022-08-19T13:32:10;18.30;;;15.10;;
3629;SDS011;1831;53.626;10.012;2022-08-19T13:34:55;16.20;;;14.50;;
3629;SDS011;1831;53.626;10.012;2022-08-19T13:37:22;16.23;;;14.53;;
3629;SDS011;1831;53.626;10.012;2022-08-19T13:40:03;20.83;;;15.93;;
3629;SDS011;1831;53.626;10.012;2022-08-19T13:42:33;15.77;;;14.10;;
3629;SDS011;1831;53.626;10.012;2022-08-19T13:44:59;17.47;;;15.60;;
3629;SDS011;1831;53.626;10.012;2022-08-19T13:47:26;17.97;;;15.93;;
3629;SDS011;1831;53.626;10.012;2022-08-19T13:49:53;17.17;;;15.47;;
3629;SDS011;1831;53.626;10.012;2022-08-19T13:52:20;17.97;;;14.50;;
3629;SDS011;1831;53.626;10.012;2022-08-19T13:54:47;15.93;;;14.23;;
3629;SDS011;1831;53.626;10.012;2022-08-19T13:57:14;16.80;;;15.00;;
3629;SDS011;1831;53.626;10.012;2022-08-19T13:59:42;17.87;;;14.87;;
3629;SDS011;1831;53.626;10.012;2022-08-19T14:02:09;19.07;;;17.07;;
3629;SDS011;1831;53.626;10.012;2022-08-19T14:04:36;17.93;;;16.00;;
3629;SDS011;1831;53.626;10.012;2022-08-19T14:07:03;17.80;;;15.90;;
3629;SDS011;1831;53.626;10.012;2022-08-19T14:09:30;16.03;;;14.27;;
3629;SDS011;1831;53.626;10.012;2022-08-19T14:11:57;15.83;;;13.80;;
3629;SDS011;1831;53.626;10.012;2022-08-19T14:14:24;16.83;;;15.13;;
3629;SDS011;1831;53.626;10.012;2022-08-19T14:16:53;16.97;;;15.27;;
3629;SDS011;1831;53.626;10.012;2022-08-19T14:19:19;21.07;;;18.80;;
3629;SDS011;1831;53.626;10.012;2022-08-19T14:21:46;19.93;;;17.83;;
3629;SDS011;1831;53.626;10.012;2022-08-19T14:24:13;21.60;;;18.70;;
3629;SDS011;1831;53.626;10.012;2022-08-19T14:26:40;21.30;;;19.10;;
3629;SDS011;1831;53.626;10.012;2022-08-19T14:29:07;19.10;;;17.20;;
3629;SDS011;1831;53.626;10.012;2022-08-19T14:31:34;19.27;;;17.43;;
3629;SDS011;1831;53.626;10.012;2022-08-19T14:34:03;20.63;;;18.63;;
3629;SDS011;1831;53.626;10.012;2022-08-19T14:36:29;21.10;;;15.67;;
3629;SDS011;1831;53.626;10.012;2022-08-19T14:38:59;18.60;;;16.70;;
3629;SDS011;1831;53.626;10.012;2022-08-19T14:41:26;19.43;;;17.10;;
3629;SDS011;1831;53.626;10.012;2022-08-19T14:43:55;20.50;;;18.50;;